createdAt,value
2018-02-20T00:01:08.705Z,90.80
2018-02-20T00:03:35.659Z,90.50
2018-02-20T00:06:02.604Z,88.90
2018-02-20T00:08:28.821Z,88.00
2018-02-20T00:10:55.757Z,89.10
2018-02-20T00:13:21.980Z,88.30
2018-02-20T00:15:48.187Z,87.70
2018-02-20T00:18:14.677Z,88.20
2018-02-20T00:20:40.866Z,87.50
2018-02-20T00:23:07.101Z,87.60
2018-02-20T00:25:33.329Z,87.80
2018-02-20T00:27:59.580Z,88.20
2018-02-20T00:30:26.532Z,90.50
2018-02-20T00:32:52.807Z,90.20
2018-02-20T00:35:19.012Z,91.10
2018-02-20T00:37:45.172Z,92.10
2018-02-20T00:40:11.364Z,93.70
2018-02-20T00:42:37.611Z,93.00
2018-02-20T00:45:03.781Z,94.50
2018-02-20T00:47:30.009Z,92.60
2018-02-20T00:49:56.964Z,93.90
2018-02-20T00:52:23.203Z,93.80
2018-02-20T00:54:50.207Z,93.10
2018-02-20T00:59:44.399Z,91.90
2018-02-20T01:02:10.610Z,91.90
2018-02-20T01:04:36.813Z,91.40
2018-02-20T01:09:31.044Z,89.20
2018-02-20T01:11:58.024Z,90.10
2018-02-20T01:16:52.882Z,85.50
2018-02-20T01:19:19.839Z,85.20
2018-02-20T01:21:46.781Z,85.10
2018-02-20T01:24:13.005Z,85.10
2018-02-20T01:26:39.954Z,85.50
2018-02-20T01:29:06.160Z,85.40
2018-02-20T01:31:33.380Z,84.70
2018-02-20T01:33:59.644Z,84.60
2018-02-20T01:36:25.892Z,85.10
2018-02-20T01:38:52.121Z,85.30
2018-02-20T01:41:18.360Z,85.30
2018-02-20T01:43:44.530Z,85.10
2018-02-20T01:46:18.332Z,85.30
2018-02-20T01:48:44.615Z,85.00
2018-02-20T01:51:11.066Z,85.40
2018-02-20T01:53:37.257Z,85.10
2018-02-20T01:56:03.480Z,85.50
2018-02-20T01:58:29.698Z,86.20
2018-02-20T02:00:56.249Z,86.40
2018-02-20T02:03:22.460Z,86.90
2018-02-20T02:05:48.652Z,86.50
2018-02-20T02:08:14.936Z,86.40
2018-02-20T02:10:41.175Z,86.10
2018-02-20T02:13:07.350Z,86.40
2018-02-20T02:15:33.518Z,86.80
2018-02-20T02:18:00.453Z,89.80
2018-02-20T02:20:27.384Z,88.20
2018-02-20T02:25:56.520Z,86.90
2018-02-20T02:28:23.432Z,89.80
2018-02-20T02:30:50.070Z,89.10
2018-02-20T02:33:16.256Z,89.70
2018-02-20T02:35:42.780Z,90.60
2018-02-20T02:38:09.698Z,91.80
2018-02-20T02:40:35.913Z,91.10
2018-02-20T02:43:02.156Z,91.10
2018-02-20T02:45:28.342Z,91.20
2018-02-20T02:47:54.575Z,91.60
2018-02-20T02:50:21.529Z,92.20
2018-02-20T02:52:47.736Z,91.90
2018-02-20T02:55:13.888Z,92.20
2018-02-20T02:57:40.156Z,92.50
2018-02-20T03:00:06.345Z,92.80
2018-02-20T03:02:32.545Z,92.90
2018-02-20T03:04:58.764Z,93.40
2018-02-20T03:07:24.958Z,93.80
2018-02-20T03:09:51.166Z,94.90
2018-02-20T03:12:17.540Z,94.10
2018-02-20T03:14:43.737Z,93.90
2018-02-20T03:17:09.968Z,93.80
2018-02-20T03:19:36.174Z,93.90
2018-02-20T03:22:03.154Z,94.80
2018-02-20T03:24:29.606Z,94.60
2018-02-20T03:26:56.579Z,95.40
2018-02-20T03:29:23.493Z,97.50
2018-02-20T03:31:50.542Z,98.50
2018-02-20T03:34:16.719Z,98.10
2018-02-20T03:36:43.129Z,96.50
2018-02-20T03:39:10.793Z,99.90
2018-02-20T03:41:36.981Z,99.10
2018-02-20T03:44:03.221Z,99.90
2018-02-20T03:46:29.691Z,99.70
2018-02-20T03:48:55.888Z,99.90
2018-02-20T03:51:22.098Z,99.90
2018-02-20T03:53:49.408Z,99.90
2018-02-20T03:56:15.680Z,99.90
2018-02-20T03:58:41.911Z,99.90
2018-02-20T04:01:08.129Z,99.90
2018-02-20T04:03:35.800Z,99.90
2018-02-20T04:06:02.755Z,99.40
2018-02-20T04:08:28.931Z,99.00
2018-02-20T04:10:55.247Z,99.90
2018-02-20T04:13:21.440Z,98.20
2018-02-20T04:18:15.690Z,99.70
2018-02-20T04:20:41.960Z,98.00
2018-02-20T04:23:08.408Z,98.10
2018-02-20T04:25:35.341Z,99.90
2018-02-20T04:28:01.541Z,99.40
2018-02-20T04:30:28.475Z,99.90
2018-02-20T04:32:54.664Z,99.90
2018-02-20T04:35:20.878Z,99.90
2018-02-20T04:37:48.032Z,99.90
2018-02-20T04:40:14.272Z,99.90
2018-02-20T04:42:40.431Z,99.90
2018-02-20T04:45:06.664Z,99.90
2018-02-20T04:47:32.836Z,99.90
2018-02-20T04:49:59.112Z,99.90
2018-02-20T04:52:25.581Z,99.90
2018-02-20T04:54:51.815Z,99.90
2018-02-20T04:57:18.061Z,99.90
2018-02-20T04:59:44.264Z,99.80
2018-02-20T05:02:10.473Z,98.20
2018-02-20T05:04:36.667Z,98.70
2018-02-20T05:07:04.425Z,99.90
2018-02-20T05:09:31.402Z,99.00
2018-02-20T05:11:57.600Z,99.10
2018-02-20T05:14:23.872Z,99.70
2018-02-20T05:19:19.676Z,99.90
2018-02-20T05:21:45.900Z,99.70
2018-02-20T05:24:12.132Z,99.60
2018-02-20T05:26:38.404Z,99.90
2018-02-20T05:29:05.692Z,99.90
2018-02-20T05:31:32.755Z,99.90
2018-02-20T05:36:27.389Z,99.90
2018-02-20T05:41:21.753Z,99.90
2018-02-20T05:43:47.988Z,99.90
2018-02-20T05:46:14.230Z,99.90
2018-02-20T05:53:36.403Z,99.90
2018-02-20T05:56:02.604Z,99.90
2018-02-20T05:58:28.813Z,99.90
2018-02-20T06:03:23.208Z,99.90
2018-02-20T06:05:49.385Z,99.90
2018-02-20T06:08:15.648Z,99.90
2018-02-20T06:10:41.815Z,99.90
2018-02-20T06:18:05.669Z,99.90
2018-02-20T06:20:31.949Z,99.90
2018-02-20T06:22:58.111Z,99.90
2018-02-20T06:27:52.220Z,99.90
2018-02-20T06:35:14.473Z,99.90
2018-02-20T07:09:45.579Z,95.00
2018-02-20T07:12:11.849Z,93.10
2018-02-20T07:14:38.049Z,93.40
2018-02-20T07:17:04.262Z,93.40
2018-02-20T07:19:30.444Z,93.30
2018-02-20T07:21:57.401Z,94.00
2018-02-20T07:24:23.945Z,93.50
2018-02-20T07:26:50.325Z,93.60
2018-02-20T07:29:16.679Z,93.80
2018-02-20T07:31:42.894Z,93.50
2018-02-20T07:34:09.988Z,93.50
2018-02-20T07:36:36.217Z,93.90
2018-02-20T07:39:03.376Z,92.90
2018-02-20T07:41:29.661Z,91.50
2018-02-20T07:43:55.899Z,91.10
2018-02-20T07:46:22.224Z,90.70
2018-02-20T07:48:49.181Z,90.80
2018-02-20T07:51:15.384Z,90.20
2018-02-20T07:53:41.610Z,90.10
2018-02-20T07:56:07.823Z,87.90
2018-02-20T07:58:34.037Z,86.80
2018-02-20T08:01:00.641Z,86.90
2018-02-20T08:05:55.550Z,90.40
2018-02-20T08:08:22.488Z,90.00
2018-02-20T08:10:50.262Z,90.20
2018-02-20T08:13:16.400Z,90.00
2018-02-20T08:15:42.911Z,85.90
2018-02-20T08:18:09.871Z,80.70
2018-02-20T08:20:36.064Z,75.50
2018-02-20T08:23:02.414Z,74.90
2018-02-20T08:25:28.611Z,72.70
2018-02-20T08:27:54.801Z,70.40
2018-02-20T08:30:21.028Z,69.20
2018-02-20T08:32:47.208Z,67.40
2018-02-20T08:35:14.337Z,64.50
2018-02-20T08:37:40.550Z,62.40
2018-02-20T08:40:06.783Z,63.60
2018-02-20T08:42:34.093Z,62.00
2018-02-20T08:45:00.328Z,60.10
2018-02-20T08:47:27.302Z,58.70
2018-02-20T08:54:50.172Z,48.50
2018-02-20T08:57:17.124Z,47.70
2018-02-20T08:59:44.909Z,47.30
2018-02-20T09:02:11.364Z,45.60
2018-02-20T09:04:37.548Z,45.50
2018-02-20T09:07:03.743Z,43.70
2018-02-20T09:09:29.962Z,42.90
2018-02-20T09:11:56.423Z,43.20
2018-02-20T09:14:22.612Z,43.50
2018-02-20T09:16:48.824Z,43.00
2018-02-20T09:19:15.076Z,43.70
2018-02-20T09:24:09.227Z,47.00
2018-02-20T09:26:35.423Z,42.80
2018-02-20T09:29:02.365Z,45.50
2018-02-20T09:31:28.588Z,45.40
2018-02-20T09:33:54.764Z,44.30
2018-02-20T09:36:20.998Z,44.00
2018-02-20T09:38:47.952Z,39.00
2018-02-20T09:41:14.228Z,39.40
2018-02-20T09:43:40.806Z,39.30
2018-02-20T09:46:07.054Z,41.00
2018-02-20T09:48:33.242Z,40.20
2018-02-20T09:50:59.450Z,41.90
2018-02-20T09:53:25.680Z,42.60
2018-02-20T09:55:51.898Z,42.40
2018-02-20T09:58:18.880Z,48.30
2018-02-20T10:00:45.104Z,43.30
2018-02-20T10:03:11.324Z,43.30
2018-02-20T10:05:37.576Z,42.90
2018-02-20T10:08:03.867Z,43.90
2018-02-20T10:10:30.032Z,43.30
2018-02-20T10:12:56.260Z,41.90
2018-02-20T10:15:22.508Z,42.20
2018-02-20T10:17:48.708Z,43.20
2018-02-20T10:20:14.863Z,43.70
2018-02-20T10:22:41.058Z,42.60
2018-02-20T10:25:07.344Z,45.00
2018-02-20T10:27:33.648Z,49.90
2018-02-20T10:30:00.606Z,48.90
2018-02-20T10:32:26.844Z,46.90
2018-02-20T10:34:53.808Z,48.00
2018-02-20T10:37:20.040Z,47.50
2018-02-20T10:39:47.242Z,46.50
2018-02-20T10:42:14.284Z,48.50
2018-02-20T10:44:41.784Z,39.80
2018-02-20T10:47:07.949Z,39.60
2018-02-20T10:49:34.180Z,39.70
2018-02-20T10:52:01.091Z,38.60
2018-02-20T10:54:28.010Z,39.40
2018-02-20T10:56:54.288Z,39.10
2018-02-20T10:59:21.287Z,39.00
2018-02-20T11:01:47.496Z,38.70
2018-02-20T11:04:14.192Z,40.90
2018-02-20T11:06:40.431Z,40.20
2018-02-20T11:09:06.617Z,39.30
2018-02-20T11:11:32.983Z,38.10
2018-02-20T11:13:59.152Z,38.40
2018-02-20T11:16:25.444Z,38.50
2018-02-20T11:18:51.713Z,39.10
2018-02-20T11:21:17.880Z,39.80
2018-02-20T11:23:44.771Z,39.50
2018-02-20T11:26:10.988Z,39.40
2018-02-20T11:28:38.158Z,38.40
2018-02-20T11:31:05.092Z,39.10
2018-02-20T11:33:31.384Z,38.90
2018-02-20T11:35:58.099Z,37.50
2018-02-20T11:38:24.265Z,38.80
2018-02-20T11:40:51.224Z,39.80
2018-02-20T11:43:17.465Z,39.60
2018-02-20T11:45:43.924Z,40.30
2018-02-20T11:48:11.656Z,38.10
2018-02-20T11:50:37.873Z,37.90
2018-02-20T11:53:04.117Z,38.40
2018-02-20T11:55:30.330Z,38.20
2018-02-20T11:57:56.862Z,38.80
2018-02-20T12:00:23.096Z,40.40
2018-02-20T12:02:49.367Z,41.40
2018-02-20T12:05:15.647Z,41.40
2018-02-20T12:07:41.873Z,41.40
2018-02-20T12:10:08.776Z,40.80
2018-02-20T12:12:35.011Z,40.50
2018-02-20T12:15:01.232Z,41.50
2018-02-20T12:17:27.496Z,43.20
2018-02-20T12:19:53.684Z,43.90
2018-02-20T12:22:19.913Z,43.20
2018-02-20T12:24:46.066Z,42.70
2018-02-20T12:27:12.292Z,41.10
2018-02-20T12:29:38.510Z,42.20
2018-02-20T12:32:04.724Z,41.30
2018-02-20T12:34:31.693Z,43.60
2018-02-20T12:36:57.892Z,43.30
2018-02-20T12:39:25.233Z,42.60
2018-02-20T12:41:52.175Z,42.10
2018-02-20T12:44:18.435Z,42.10
2018-02-20T12:46:44.873Z,42.30
2018-02-20T12:49:11.149Z,42.60
2018-02-20T12:51:37.316Z,45.40
2018-02-20T12:54:04.314Z,50.40
2018-02-20T12:56:31.240Z,51.40
2018-02-20T12:58:57.424Z,50.60
2018-02-20T13:01:23.644Z,51.60
2018-02-20T13:03:49.862Z,49.80
2018-02-20T13:06:17.493Z,49.10
2018-02-20T13:08:43.815Z,50.80
2018-02-20T13:11:10.040Z,50.50
2018-02-20T13:13:36.264Z,50.60
2018-02-20T13:16:02.503Z,53.30
2018-02-20T13:18:29.435Z,55.50
2018-02-20T13:20:56.012Z,55.00
2018-02-20T13:23:22.185Z,55.40
2018-02-20T13:25:49.125Z,56.00
2018-02-20T13:28:15.355Z,53.90
2018-02-20T13:30:41.529Z,53.90
2018-02-20T13:33:07.739Z,54.50
2018-02-20T13:35:34.671Z,54.60
2018-02-20T13:38:00.861Z,53.80
2018-02-20T13:40:27.045Z,54.40
2018-02-20T13:42:54.008Z,56.10
2018-02-20T13:45:20.991Z,56.90
2018-02-20T13:47:48.079Z,56.60
2018-02-20T13:50:14.297Z,56.20
2018-02-20T13:52:40.519Z,55.40
2018-02-20T13:55:06.743Z,56.70
2018-02-20T13:57:32.944Z,57.10
2018-02-20T13:59:59.104Z,56.80
2018-02-20T14:02:26.034Z,59.10
2018-02-20T14:04:52.988Z,59.20
2018-02-20T14:07:19.956Z,58.10
2018-02-20T14:09:46.324Z,56.60
2018-02-20T14:12:12.526Z,57.10
2018-02-20T14:14:38.704Z,57.00
2018-02-20T14:17:06.048Z,58.50
2018-02-20T14:19:32.289Z,57.60
2018-02-20T14:21:58.464Z,57.90
2018-02-20T14:24:26.292Z,60.30
2018-02-20T14:26:52.468Z,59.90
2018-02-20T14:29:20.043Z,62.20
2018-02-20T14:31:47.035Z,62.60
2018-02-20T14:34:13.219Z,61.90
2018-02-20T14:36:39.403Z,51.60
2018-02-20T14:39:05.645Z,51.70
2018-02-20T14:41:31.796Z,52.40
2018-02-20T14:43:57.981Z,52.50
2018-02-20T14:46:24.183Z,52.90
2018-02-20T14:48:50.609Z,53.10
2018-02-20T14:51:16.756Z,53.60
2018-02-20T14:53:42.977Z,53.70
2018-02-20T14:56:09.157Z,54.40
2018-02-20T14:58:35.332Z,55.40
2018-02-20T15:01:01.568Z,55.60
2018-02-20T15:03:27.753Z,55.70
2018-02-20T15:05:53.936Z,56.00
2018-02-20T15:08:20.184Z,56.40
2018-02-20T15:10:46.352Z,57.00
2018-02-20T15:13:12.577Z,57.00
2018-02-20T15:15:39.696Z,57.30
2018-02-20T15:18:06.636Z,57.50
2018-02-20T15:20:32.792Z,57.40
2018-02-20T15:23:00.013Z,58.40
2018-02-20T15:25:26.236Z,58.50
2018-02-20T15:27:52.404Z,58.80
2018-02-20T15:30:20.106Z,59.30
2018-02-20T15:32:47.053Z,59.70
2018-02-20T15:35:13.984Z,59.90
2018-02-20T15:37:40.158Z,59.80
2018-02-20T15:40:06.416Z,60.70
2018-02-20T15:42:32.620Z,60.30
2018-02-20T15:44:58.805Z,61.00
2018-02-20T15:47:25.010Z,61.20
2018-02-20T15:49:51.230Z,61.30
2018-02-20T15:52:17.449Z,61.00
2018-02-20T15:54:43.656Z,61.60
2018-02-20T15:57:09.843Z,61.90
2018-02-20T15:59:36.196Z,61.70
2018-02-20T16:02:02.393Z,62.10
2018-02-20T16:04:28.576Z,62.30
2018-02-20T16:06:55.100Z,62.50
2018-02-20T16:09:21.264Z,63.00
2018-02-20T16:11:47.471Z,63.70
2018-02-20T16:14:13.688Z,63.90
2018-02-20T16:16:39.922Z,64.30
2018-02-20T16:19:06.116Z,64.00
2018-02-20T16:21:33.060Z,65.30
2018-02-20T16:23:59.556Z,65.20
2018-02-20T16:26:25.728Z,65.70
2018-02-20T16:28:51.931Z,65.40
2018-02-20T16:31:18.128Z,65.50
2018-02-20T16:33:44.302Z,65.80
2018-02-20T16:36:10.467Z,65.70
2018-02-20T16:38:36.779Z,66.10
2018-02-20T16:41:02.980Z,66.30
2018-02-20T16:43:30.332Z,66.80
2018-02-20T16:45:57.622Z,66.80
2018-02-20T16:48:23.833Z,67.20
2018-02-20T16:50:50.947Z,67.60
2018-02-20T16:53:17.875Z,67.80
2018-02-20T16:55:44.048Z,67.70
2018-02-20T16:58:11.177Z,68.50
2018-02-20T17:00:37.385Z,68.50
2018-02-20T17:03:03.574Z,68.60
2018-02-20T17:05:29.818Z,68.50
2018-02-20T17:07:56.021Z,69.20
2018-02-20T17:10:22.251Z,68.70
2018-02-20T17:12:49.186Z,68.70
2018-02-20T17:15:16.045Z,68.60
2018-02-20T17:17:43.013Z,71.50
2018-02-20T17:20:09.416Z,71.50
2018-02-20T17:22:35.624Z,73.50
2018-02-20T17:25:01.778Z,70.90
2018-02-20T17:27:28.204Z,70.50
2018-02-20T17:29:54.402Z,67.80
2018-02-20T17:32:21.326Z,68.70
2018-02-20T17:34:47.471Z,68.70
2018-02-20T17:37:14.396Z,69.20
2018-02-20T17:39:41.229Z,69.70
2018-02-20T17:42:07.393Z,69.30
2018-02-20T17:44:33.702Z,69.90
2018-02-20T17:46:59.928Z,70.10
2018-02-20T17:49:26.128Z,70.80
2018-02-20T17:51:52.581Z,71.60
2018-02-20T17:54:18.748Z,71.70
2018-02-20T17:56:45.922Z,72.10
2018-02-20T17:59:12.164Z,72.10
2018-02-20T18:01:38.360Z,72.00
2018-02-20T18:04:04.568Z,71.30
2018-02-20T18:06:30.828Z,71.90
2018-02-20T18:08:57.044Z,71.70
2018-02-20T18:11:23.576Z,71.80
2018-02-20T18:13:49.788Z,71.90
2018-02-20T18:16:16.012Z,72.10
2018-02-20T18:18:42.205Z,72.10
2018-02-20T18:21:08.452Z,72.70
2018-02-20T18:23:34.649Z,72.10
2018-02-20T18:26:00.824Z,72.80
2018-02-20T18:28:27.248Z,72.60
2018-02-20T18:30:53.440Z,72.70
2018-02-20T18:33:20.380Z,73.00
2018-02-20T18:35:46.619Z,73.00
2018-02-20T18:38:12.840Z,73.20
2018-02-20T18:40:39.041Z,72.80
2018-02-20T18:43:05.252Z,73.80
2018-02-20T18:45:31.475Z,73.90
2018-02-20T18:47:59.275Z,74.80
2018-02-20T18:50:26.268Z,75.10
2018-02-20T18:52:52.743Z,74.80
2018-02-20T18:55:18.936Z,74.80
2018-02-20T18:57:45.133Z,74.90
2018-02-20T19:00:11.304Z,74.60
2018-02-20T19:02:37.529Z,74.70
2018-02-20T19:05:03.732Z,74.70
2018-02-20T19:07:29.984Z,74.70
2018-02-20T19:09:56.282Z,74.60
2018-02-20T19:12:22.468Z,74.90
2018-02-20T19:14:48.659Z,74.90
2018-02-20T19:17:15.025Z,74.70
2018-02-20T19:19:41.248Z,75.30
2018-02-20T19:22:07.425Z,75.00
2018-02-20T19:24:34.556Z,75.20
2018-02-20T19:27:00.810Z,75.00
2018-02-20T19:29:27.007Z,74.80
2018-02-20T19:31:53.224Z,75.20
2018-02-20T19:34:19.416Z,75.10
2018-02-20T19:36:45.594Z,74.70
2018-02-20T19:39:11.786Z,75.10
2018-02-20T19:41:39.668Z,75.00
2018-02-20T19:44:05.847Z,75.00
2018-02-20T19:46:32.067Z,75.10
2018-02-20T19:48:58.284Z,74.80
2018-02-20T19:51:24.473Z,75.30
2018-02-20T19:53:51.640Z,75.10
2018-02-20T19:56:17.876Z,75.00
2018-02-20T19:58:44.805Z,74.80
2018-02-20T20:01:10.988Z,74.70
2018-02-20T20:03:39.151Z,74.40
2018-02-20T20:06:06.024Z,74.60
2018-02-20T20:08:32.197Z,74.90
2018-02-20T20:10:59.155Z,75.00
2018-02-20T20:13:26.124Z,75.00
2018-02-20T20:15:53.060Z,75.00
2018-02-20T20:18:20.016Z,75.00
2018-02-20T20:20:48.120Z,74.80
2018-02-20T20:23:14.098Z,75.10
2018-02-20T20:25:40.330Z,75.10
2018-02-20T20:28:06.472Z,75.30
2018-02-20T20:30:32.728Z,74.80
2018-02-20T20:32:58.947Z,74.50
2018-02-20T20:35:25.147Z,74.50
2018-02-20T20:37:51.387Z,75.00
2018-02-20T20:40:17.652Z,75.10
2018-02-20T20:42:43.818Z,75.30
2018-02-20T20:45:11.189Z,75.30
2018-02-20T20:47:37.364Z,75.30
2018-02-20T20:50:03.600Z,74.60
2018-02-20T20:52:29.832Z,74.10
2018-02-20T20:54:56.882Z,74.20
2018-02-20T20:57:23.201Z,74.20
2018-02-20T20:59:49.407Z,74.40
2018-02-20T21:02:15.611Z,74.00
2018-02-20T21:04:42.569Z,74.30
2018-02-20T21:07:08.812Z,74.30
2018-02-20T21:09:34.960Z,73.60
2018-02-20T21:12:01.172Z,74.00
2018-02-20T21:14:27.402Z,73.90
2018-02-20T21:16:53.620Z,73.50
2018-02-20T21:19:19.776Z,73.50
2018-02-20T21:21:48.314Z,73.50
2018-02-20T21:24:14.616Z,73.40
2018-02-20T21:26:41.538Z,74.00
2018-02-20T21:29:07.737Z,74.00
2018-02-20T21:31:33.912Z,74.00
2018-02-20T21:34:00.857Z,73.70
2018-02-20T21:36:27.815Z,74.50
2018-02-20T21:38:54.957Z,74.30
2018-02-20T21:41:21.180Z,74.30
2018-02-20T21:43:47.415Z,75.00
2018-02-20T21:46:13.596Z,75.00
2018-02-20T21:48:39.824Z,74.90
2018-02-20T21:51:06.028Z,74.30
2018-02-20T21:53:35.599Z,74.40
2018-02-20T21:56:02.605Z,74.70
2018-02-20T21:58:29.528Z,74.30
2018-02-20T22:00:55.756Z,74.30
2018-02-20T22:03:21.972Z,74.40
2018-02-20T22:05:48.133Z,74.30
2018-02-20T22:08:14.328Z,74.30
2018-02-20T22:10:41.235Z,74.30
2018-02-20T22:13:07.424Z,74.30
2018-02-20T22:15:33.628Z,74.00
2018-02-20T22:17:59.823Z,73.50
2018-02-20T22:20:26.008Z,73.60
2018-02-20T22:22:52.173Z,73.80
2018-02-20T22:25:18.403Z,74.80
2018-02-20T22:27:44.592Z,74.60
2018-02-20T22:30:10.752Z,74.70
2018-02-20T22:32:37.036Z,75.60
2018-02-20T22:35:03.199Z,75.10
2018-02-20T22:37:30.400Z,75.10
2018-02-20T22:39:56.672Z,75.10
2018-02-20T22:42:22.868Z,75.60
2018-02-20T22:44:49.856Z,75.90
2018-02-20T22:47:16.800Z,75.60
2018-02-20T22:49:42.991Z,75.70
2018-02-20T22:52:09.335Z,76.20
2018-02-20T22:54:35.540Z,76.80
2018-02-20T22:57:01.969Z,76.50
2018-02-20T22:59:28.175Z,76.20
2018-02-20T23:01:54.348Z,76.30
2018-02-20T23:04:20.528Z,76.40
2018-02-20T23:06:46.871Z,75.80
2018-02-20T23:09:13.823Z,76.20
2018-02-20T23:11:42.860Z,76.10
2018-02-20T23:14:10.067Z,75.60
2018-02-20T23:16:36.268Z,75.60
2018-02-20T23:19:03.204Z,76.50
2018-02-20T23:21:29.391Z,76.50
2018-02-20T23:23:55.556Z,76.30
2018-02-20T23:26:22.480Z,77.50
2018-02-20T23:28:48.715Z,76.90
2018-02-20T23:31:14.903Z,76.90
2018-02-20T23:33:41.088Z,77.50
2018-02-20T23:36:07.268Z,76.60
2018-02-20T23:38:33.524Z,76.90
2018-02-20T23:40:59.772Z,77.00
2018-02-20T23:43:26.772Z,76.70
2018-02-20T23:45:53.693Z,77.20
2018-02-20T23:48:19.879Z,76.60
2018-02-20T23:50:46.040Z,77.00
2018-02-20T23:53:12.238Z,77.80
2018-02-20T23:55:38.439Z,77.60
2018-02-20T23:58:04.959Z,77.00
